Time;durP1;ratioP1;P1;durP2;ratioP2;P2;SDS_P1;SDS_P2;PMS_P1;PMS_P2;Temp;Humidity;BMP_temperature;BMP_pressure;BME280_temperature;BME280_humidity;BME280_pressure;Samples;Min_cycle;Max_cycle;Signal;HPM_P1;HPM_P2
2022/05/07 00:00:22;;;;;;;3.80;1.10;;;12.70;99.90;;;;;;4180240;28;20119;-83
2022/05/07 00:02:25;;;;;;;1.77;1.25;;;12.70;99.90;;;;;;4183654;28;20048;-83
2022/05/07 00:04:27;;;;;;;1.88;1.20;;;12.80;99.90;;;;;;4177014;28;20091;-84
2022/05/07 00:06:29;;;;;;;3.10;1.10;;;12.70;99.90;;;;;;4160551;28;20046;-84
2022/05/07 00:08:31;;;;;;;2.58;1.85;;;12.80;99.90;;;;;;4179771;28;20139;-83
2022/05/07 00:10:33;;;;;;;2.15;1.20;;;12.70;99.90;;;;;;4193382;28;20503;-83
2022/05/07 00:12:36;;;;;;;1.55;1.10;;;12.70;99.90;;;;;;4193440;28;20082;-83
2022/05/07 00:14:38;;;;;;;2.17;1.45;;;12.70;99.90;;;;;;4144493;28;20049;-83
2022/05/07 00:19:01;;;;;;;1.40;1.38;;;12.70;99.90;;;;;;4194527;28;20044;-83
2022/05/07 00:21:03;;;;;;;3.05;1.48;;;12.70;99.90;;;;;;4176594;28;20068;-83
2022/05/07 00:23:05;;;;;;;1.70;1.27;;;12.60;99.90;;;;;;4176850;28;20076;-83
2022/05/07 00:25:08;;;;;;;1.20;1.10;;;12.60;99.90;;;;;;4184733;28;20049;-83
2022/05/07 00:27:13;;;;;;;1.80;1.70;;;12.70;99.90;;;;;;4176865;28;20037;-84
2022/05/07 00:29:15;;;;;;;1.20;1.20;;;12.70;99.90;;;;;;4177871;28;20044;-84
2022/05/07 00:31:17;;;;;;;1.52;1.38;;;12.70;99.90;;;;;;4183196;28;20497;-83
2022/05/07 00:33:20;;;;;;;1.48;1.20;;;12.70;99.90;;;;;;4194633;28;20790;-83
2022/05/07 00:35:23;;;;;;;1.30;1.30;;;12.60;99.90;;;;;;4176599;28;20111;-83
2022/05/07 00:37:25;;;;;;;1.10;1.10;;;12.60;99.90;;;;;;4176299;28;20112;-83
2022/05/07 00:39:28;;;;;;;2.50;1.30;;;12.70;99.90;;;;;;4176752;28;20041;-84
2022/05/07 00:41:30;;;;;;;1.80;1.30;;;12.70;99.90;;;;;;4189813;28;20528;-83
2022/05/07 00:43:36;;;;;;;2.05;1.83;;;12.70;99.90;;;;;;4176131;28;20045;-83
2022/05/07 00:45:38;;;;;;;1.40;1.30;;;12.70;99.90;;;;;;4176422;28;20037;-83
2022/05/07 00:47:40;;;;;;;2.95;1.10;;;12.60;99.90;;;;;;4169978;28;20045;-83
2022/05/07 00:49:46;;;;;;;2.97;1.60;;;12.60;99.90;;;;;;4192187;28;20071;-83
2022/05/07 00:51:49;;;;;;;1.45;1.45;;;12.70;99.90;;;;;;4159669;28;20608;-83
2022/05/07 00:53:51;;;;;;;1.83;1.58;;;12.70;99.90;;;;;;4184939;28;20056;-83
2022/05/07 00:55:55;;;;;;;1.50;1.40;;;12.80;99.90;;;;;;4194109;28;20086;-83
2022/05/07 00:57:57;;;;;;;1.40;1.30;;;12.80;99.90;;;;;;4192142;28;20119;-83
2022/05/07 01:00:01;;;;;;;1.20;1.20;;;12.70;99.90;;;;;;4192578;28;20757;-84
2022/05/07 01:02:03;;;;;;;1.40;1.30;;;12.70;99.90;;;;;;4176045;28;20041;-83
2022/05/07 01:04:07;;;;;;;1.42;1.30;;;12.70;99.90;;;;;;4194002;28;20040;-83
2022/05/07 01:06:09;;;;;;;1.85;1.10;;;12.70;99.90;;;;;;4175759;28;20044;-83
2022/05/07 01:08:12;;;;;;;1.30;1.30;;;12.80;99.90;;;;;;4182804;28;20108;-83
2022/05/07 01:10:15;;;;;;;1.70;1.60;;;12.80;99.90;;;;;;4176132;28;20234;-83
2022/05/07 01:12:18;;;;;;;;;;;12.80;99.90;;;;;;4172027;28;20051;-83
2022/05/07 01:14:20;;;;;;;3.55;1.30;;;12.70;99.90;;;;;;4176823;28;20559;-83
2022/05/07 01:16:23;;;;;;;2.25;1.63;;;12.70;99.90;;;;;;4187509;28;20044;-83
2022/05/07 01:18:26;;;;;;;2.78;1.35;;;12.70;99.90;;;;;;4175618;28;20844;-84
2022/05/07 01:20:28;;;;;;;3.42;1.25;;;12.70;99.90;;;;;;4176007;28;20029;-84
2022/05/07 01:22:30;;;;;;;1.95;1.27;;;12.70;99.90;;;;;;4183993;28;20032;-84
2022/05/07 01:24:32;;;;;;;;;;;12.60;99.90;;;;;;4194448;28;20040;-83
2022/05/07 01:26:34;;;;;;;2.35;2.05;;;12.60;99.90;;;;;;4193336;28;19973;-83
2022/05/07 01:28:37;;;;;;;1.60;1.50;;;12.60;99.90;;;;;;4193955;28;20052;-83
2022/05/07 01:30:39;;;;;;;;;;;12.50;99.90;;;;;;4176819;28;20049;-83
2022/05/07 01:32:41;;;;;;;1.50;1.40;;;12.50;99.90;;;;;;4175998;28;19931;-83
2022/05/07 01:34:43;;;;;;;1.75;1.65;;;12.50;99.90;;;;;;4175763;28;20091;-83
2022/05/07 01:36:45;;;;;;;1.20;1.20;;;12.50;99.90;;;;;;4193622;28;20053;-83
2022/05/07 01:38:48;;;;;;;2.05;1.40;;;12.60;99.90;;;;;;4182533;28;20052;-83
2022/05/07 01:40:50;;;;;;;1.27;1.23;;;12.60;99.90;;;;;;4176135;28;20048;-83
2022/05/07 01:42:52;;;;;;;1.30;1.20;;;12.60;99.90;;;;;;4176725;28;20053;-83
2022/05/07 01:44:54;;;;;;;1.85;1.40;;;12.70;99.90;;;;;;4176681;28;20049;-83
2022/05/07 01:49:17;;;;;;;4.05;1.13;;;12.70;99.90;;;;;;4193687;28;20158;-84
2022/05/07 01:51:19;;;;;;;1.65;1.27;;;12.60;99.90;;;;;;4183469;28;20105;-83
2022/05/07 01:53:22;;;;;;;1.38;1.38;;;12.60;99.90;;;;;;4177136;28;20045;-83
2022/05/07 01:55:24;;;;;;;5.53;2.00;;;12.60;99.90;;;;;;4175982;28;20048;-83
2022/05/07 01:57:26;;;;;;;1.20;1.20;;;12.60;99.90;;;;;;4175879;28;20124;-83
2022/05/07 01:59:28;;;;;;;2.42;1.35;;;12.70;99.90;;;;;;4177031;28;20103;-84
2022/05/07 02:01:30;;;;;;;1.52;1.20;;;12.60;99.90;;;;;;4190114;28;20070;-83
2022/05/07 02:03:32;;;;;;;1.70;1.60;;;12.70;99.90;;;;;;4184127;28;20049;-84
2022/05/07 02:05:34;;;;;;;1.40;1.40;;;12.60;99.90;;;;;;4176812;28;20041;-83
2022/05/07 02:07:36;;;;;;;1.55;1.50;;;12.50;99.90;;;;;;4181089;28;20056;-83
2022/05/07 02:09:39;;;;;;;1.63;1.48;;;12.50;99.90;;;;;;4192292;28;20056;-83
2022/05/07 02:11:41;;;;;;;3.70;2.03;;;12.40;99.90;;;;;;4175664;28;20059;-83
2022/05/07 02:13:44;;;;;;;3.15;1.85;;;12.40;99.90;;;;;;4175645;28;20551;-83
2022/05/07 02:15:46;;;;;;;2.20;1.83;;;12.40;99.90;;;;;;4159655;28;20136;-83
2022/05/07 02:17:48;;;;;;;1.10;1.10;;;12.40;99.90;;;;;;4182023;28;20476;-83
2022/05/07 02:19:50;;;;;;;1.65;1.55;;;12.40;99.90;;;;;;4185595;28;20055;-83
2022/05/07 02:21:52;;;;;;;4.53;2.33;;;12.50;99.90;;;;;;4175702;28;20120;-83
2022/05/07 02:23:55;;;;;;;1.73;1.55;;;12.50;99.90;;;;;;4190300;28;20048;-83
2022/05/07 02:25:57;;;;;;;1.50;1.50;;;12.50;99.90;;;;;;4194075;28;20523;-83
2022/05/07 02:27:59;;;;;;;1.77;1.65;;;12.50;99.90;;;;;;4178616;28;20049;-83
2022/05/07 02:30:02;;;;;;;2.28;1.40;;;12.50;99.90;;;;;;4196349;28;20048;-83
2022/05/07 02:32:05;;;;;;;1.45;1.45;;;12.50;99.90;;;;;;4178459;28;20064;-83
2022/05/07 02:34:07;;;;;;;1.55;1.45;;;12.40;99.90;;;;;;4195457;28;20061;-83
2022/05/07 02:36:09;;;;;;;1.30;1.25;;;12.40;99.90;;;;;;4184505;28;20048;-83
2022/05/07 02:38:11;;;;;;;4.68;1.48;;;12.40;99.90;;;;;;4180697;28;20037;-84
2022/05/07 02:40:13;;;;;;;1.85;1.75;;;12.40;99.90;;;;;;4195244;28;20058;-84
2022/05/07 02:42:33;;;;;;;1.10;1.10;;;12.40;99.90;;;;;;4195039;28;20651;-83
2022/05/07 02:44:35;;;;;;;1.50;1.23;;;12.30;99.90;;;;;;4195835;28;20105;-83
2022/05/07 02:46:38;;;;;;;1.92;1.25;;;12.30;99.90;;;;;;4196346;28;20048;-83
2022/05/07 02:48:44;;;;;;;1.40;1.40;;;12.30;99.90;;;;;;4186400;28;20041;-83
2022/05/07 02:50:46;;;;;;;2.72;1.17;;;12.20;99.90;;;;;;4178485;28;20048;-83
2022/05/07 02:52:48;;;;;;;1.77;1.30;;;12.20;99.90;;;;;;4195964;28;20060;-83
2022/05/07 02:54:50;;;;;;;1.10;1.10;;;12.20;99.90;;;;;;4185366;28;20049;-83
2022/05/07 02:56:52;;;;;;;2.10;1.35;;;12.10;99.90;;;;;;4195108;28;20052;-83
2022/05/07 02:58:54;;;;;;;1.70;1.65;;;12.10;99.90;;;;;;4195010;28;20465;-83
2022/05/07 03:00:58;;;;;;;1.25;1.25;;;12.10;99.90;;;;;;4198225;28;20102;-83
2022/05/07 03:03:01;;;;;;;1.58;1.48;;;12.20;99.90;;;;;;4180108;28;20091;-83
2022/05/07 03:05:03;;;;;;;1.65;1.30;;;12.20;99.90;;;;;;4180875;28;20611;-83
2022/05/07 03:07:06;;;;;;;1.35;1.35;;;12.20;99.90;;;;;;4181253;28;20048;-83
2022/05/07 03:09:08;;;;;;;1.20;1.20;;;12.10;99.90;;;;;;4180721;28;20048;-83
2022/05/07 03:11:11;;;;;;;1.27;1.27;;;12.10;99.90;;;;;;4181201;28;20057;-83
2022/05/07 03:13:13;;;;;;;1.88;1.05;;;12.20;99.90;;;;;;4181175;28;20064;-83
2022/05/07 03:15:15;;;;;;;0.90;0.90;;;12.20;99.90;;;;;;4180883;28;20493;-84
2022/05/07 03:17:17;;;;;;;1.48;1.42;;;12.30;99.90;;;;;;4181574;28;20058;-83
2022/05/07 03:19:20;;;;;;;1.75;1.23;;;12.30;99.90;;;;;;4162912;28;20042;-83
2022/05/07 03:21:22;;;;;;;1.00;1.00;;;12.40;99.90;;;;;;4177286;28;20501;-83
2022/05/07 03:23:25;;;;;;;1.92;1.25;;;12.40;99.90;;;;;;4190015;28;20055;-83
2022/05/07 03:25:27;;;;;;;1.00;0.90;;;12.40;99.90;;;;;;4177918;28;20053;-83
2022/05/07 03:27:32;;;;;;;1.13;1.00;;;12.40;99.90;;;;;;4191047;28;20052;-83
2022/05/07 03:29:34;;;;;;;1.75;1.00;;;12.40;99.90;;;;;;4191486;28;20539;-83
2022/05/07 03:31:38;;;;;;;;;;;12.50;99.90;;;;;;4179545;28;20052;-83
2022/05/07 03:33:41;;;;;;;1.05;1.00;;;12.50;99.90;;;;;;4190511;28;20414;-83
2022/05/07 03:35:44;;;;;;;1.00;1.00;;;12.50;99.90;;;;;;4195641;28;20056;-83
2022/05/07 03:37:46;;;;;;;0.90;0.90;;;12.60;99.90;;;;;;4195183;28;20062;-84
2022/05/07 03:39:49;;;;;;;0.90;0.90;;;12.70;99.90;;;;;;4185462;28;20501;-83
2022/05/07 03:41:51;;;;;;;1.00;1.00;;;12.80;99.90;;;;;;4177730;28;20053;-83
2022/05/07 03:43:53;;;;;;;1.15;1.00;;;12.80;99.90;;;;;;4193575;28;20078;-84
2022/05/07 03:45:55;;;;;;;1.20;0.90;;;12.80;99.90;;;;;;4188058;28;20053;-83
2022/05/07 03:47:57;;;;;;;0.90;0.90;;;12.80;99.90;;;;;;4177634;28;20053;-83
2022/05/07 03:49:59;;;;;;;1.05;0.80;;;12.80;99.90;;;;;;4191996;28;20045;-83
2022/05/07 03:54:23;;;;;;;1.13;1.00;;;12.70;99.90;;;;;;4178676;28;20132;-83
2022/05/07 03:56:25;;;;;;;1.02;0.90;;;12.60;99.90;;;;;;4194311;28;20060;-83
2022/05/07 03:58:27;;;;;;;0.93;0.90;;;12.60;99.90;;;;;;4195156;28;20068;-83
2022/05/07 04:00:29;;;;;;;0.90;0.90;;;12.60;99.90;;;;;;4195165;28;20053;-83
2022/05/07 04:02:32;;;;;;;0.90;0.90;;;12.60;99.90;;;;;;4164608;28;20579;-83
2022/05/07 04:04:35;;;;;;;0.80;0.80;;;12.60;99.90;;;;;;4181572;28;20044;-83
2022/05/07 04:06:37;;;;;;;0.82;0.82;;;12.70;99.90;;;;;;4195237;28;20055;-83
2022/05/07 04:08:39;;;;;;;0.90;0.90;;;12.70;99.90;;;;;;4194914;28;20594;-83
2022/05/07 04:10:44;;;;;;;;;;;12.60;99.90;;;;;;4194149;28;20479;-83
2022/05/07 04:12:48;;;;;;;0.80;0.80;;;12.60;99.90;;;;;;4194327;28;20011;-84
2022/05/07 04:14:50;;;;;;;0.90;0.90;;;12.70;99.90;;;;;;4184484;28;20103;-83
2022/05/07 04:16:52;;;;;;;0.90;0.90;;;12.60;99.90;;;;;;4178176;28;20830;-83
2022/05/07 04:18:54;;;;;;;0.93;0.93;;;12.60;99.90;;;;;;4192829;28;20052;-83
2022/05/07 04:20:58;;;;;;;2.47;1.10;;;12.50;99.90;;;;;;4167517;28;20045;-83
2022/05/07 04:23:00;;;;;;;0.98;0.98;;;12.50;99.90;;;;;;4194568;28;20447;-83
2022/05/07 04:25:07;;;;;;;1.48;1.00;;;12.50;99.90;;;;;;4176877;28;20059;-83
2022/05/07 04:27:10;;;;;;;2.67;0.90;;;12.50;99.90;;;;;;4176714;28;20464;-83
2022/05/07 04:29:16;;;;;;;0.90;0.90;;;12.50;99.90;;;;;;4178039;28;20049;-83
2022/05/07 04:31:19;;;;;;;3.25;1.08;;;12.60;99.90;;;;;;4173681;28;20061;-83
2022/05/07 04:33:21;;;;;;;0.90;0.90;;;12.60;99.90;;;;;;4193402;28;20493;-83
2022/05/07 04:35:23;;;;;;;1.63;0.93;;;12.60;99.90;;;;;;4178169;28;20068;-83
2022/05/07 04:37:25;;;;;;;0.90;0.90;;;12.60;99.90;;;;;;4171352;28;20087;-83
2022/05/07 04:39:28;;;;;;;1.10;1.10;;;12.60;99.90;;;;;;4191123;28;20054;-83
2022/05/07 04:41:30;;;;;;;;;;;12.60;99.90;;;;;;4177350;28;20049;-83
2022/05/07 04:43:31;;;;;;;1.00;1.00;;;12.60;99.90;;;;;;4186543;28;20292;-83
2022/05/07 04:45:34;;;;;;;0.90;0.90;;;12.60;99.90;;;;;;4193133;28;20040;-83
2022/05/07 04:47:36;;;;;;;2.45;1.20;;;12.60;99.90;;;;;;4176379;28;20053;-83
2022/05/07 04:49:38;;;;;;;1.02;1.00;;;12.70;99.90;;;;;;4193617;28;20538;-83
2022/05/07 04:51:40;;;;;;;0.95;0.93;;;12.80;99.90;;;;;;4184865;28;20041;-83
2022/05/07 04:53:42;;;;;;;1.27;1.20;;;12.80;99.90;;;;;;4173586;28;20059;-83
2022/05/07 04:55:44;;;;;;;1.00;1.00;;;12.70;99.90;;;;;;4189928;28;20041;-83
2022/05/07 04:57:46;;;;;;;2.83;1.20;;;12.60;99.90;;;;;;4177826;28;20056;-83
2022/05/07 04:59:48;;;;;;;2.05;1.20;;;12.60;99.90;;;;;;4159897;28;20394;-83
2022/05/07 05:01:50;;;;;;;2.25;2.00;;;12.60;99.90;;;;;;4179645;28;20045;-83
2022/05/07 05:03:52;;;;;;;1.08;1.00;;;12.70;99.90;;;;;;4176308;28;20115;-83
2022/05/07 05:05:54;;;;;;;1.55;1.40;;;12.80;99.90;;;;;;4192842;28;20072;-83
2022/05/07 05:07:57;;;;;;;1.25;1.10;;;12.80;99.90;;;;;;4192748;28;20050;-83
2022/05/07 05:10:00;;;;;;;4.13;1.38;;;12.90;99.90;;;;;;4193893;28;20063;-83
2022/05/07 05:12:04;;;;;;;1.85;1.75;;;13.00;99.90;;;;;;4193699;28;20511;-83
2022/05/07 05:16:27;;;;;;;1.65;1.27;;;13.00;99.90;;;;;;4177064;28;20048;-83
2022/05/07 05:18:30;;;;;;;;;;;13.00;99.90;;;;;;4190007;28;20531;-83
2022/05/07 05:20:32;;;;;;;1.23;1.15;;;13.00;99.90;;;;;;4193110;28;19924;-83
2022/05/07 05:22:34;;;;;;;1.13;1.13;;;13.10;99.90;;;;;;4176141;28;20053;-83
2022/05/07 05:24:36;;;;;;;2.03;1.77;;;13.10;99.90;;;;;;4176085;28;20072;-83
2022/05/07 05:26:38;;;;;;;1.67;1.60;;;13.10;99.90;;;;;;4194153;28;20048;-83
2022/05/07 05:28:42;;;;;;;1.10;1.10;;;13.10;99.90;;;;;;4175791;28;20044;-83
2022/05/07 05:30:46;;;;;;;1.65;1.10;;;13.10;99.90;;;;;;4192528;28;20559;-84
2022/05/07 05:32:48;;;;;;;1.10;1.10;;;13.10;99.90;;;;;;4193967;28;20051;-83
2022/05/07 05:34:53;;;;;;;1.38;1.23;;;13.10;99.90;;;;;;4175892;28;20045;-83
2022/05/07 05:36:55;;;;;;;1.90;1.10;;;13.10;99.90;;;;;;4193778;28;20554;-83
2022/05/07 05:38:57;;;;;;;3.33;1.08;;;13.20;99.90;;;;;;4194055;28;20123;-83
2022/05/07 05:40:59;;;;;;;3.50;1.10;;;13.20;99.90;;;;;;4175648;28;20068;-83
2022/05/07 05:43:01;;;;;;;1.10;1.10;;;13.20;99.90;;;;;;4178579;28;20049;-83
2022/05/07 05:45:07;;;;;;;1.00;1.00;;;13.30;99.90;;;;;;4159687;28;20049;-83
2022/05/07 05:47:10;;;;;;;2.45;1.10;;;13.20;99.90;;;;;;4166686;28;20061;-83
2022/05/07 05:49:12;;;;;;;1.63;1.63;;;13.20;99.90;;;;;;4193727;28;20059;-83
2022/05/07 05:51:14;;;;;;;1.63;1.10;;;13.20;99.90;;;;;;4175801;28;20080;-83
2022/05/07 05:53:17;;;;;;;1.27;1.00;;;13.20;99.90;;;;;;4187804;28;20053;-83
2022/05/07 05:55:19;;;;;;;1.00;1.00;;;13.10;99.90;;;;;;4177231;28;20076;-83
2022/05/07 05:57:22;;;;;;;1.20;1.20;;;13.10;99.90;;;;;;4175769;28;20049;-83
2022/05/07 05:59:25;;;;;;;1.20;1.10;;;13.10;99.90;;;;;;4180392;28;20818;-83
2022/05/07 06:01:28;;;;;;;1.38;1.13;;;13.00;99.90;;;;;;4195546;28;20074;-83
2022/05/07 06:03:30;;;;;;;2.28;1.20;;;13.00;99.90;;;;;;4168175;28;20151;-83
2022/05/07 06:05:32;;;;;;;1.77;1.00;;;13.00;99.90;;;;;;4180272;28;20041;-83
2022/05/07 06:07:35;;;;;;;1.10;1.00;;;13.00;99.90;;;;;;4178956;28;20044;-83
2022/05/07 06:09:37;;;;;;;1.20;1.10;;;12.90;99.90;;;;;;4188156;28;20053;-83
2022/05/07 06:11:39;;;;;;;1.00;1.00;;;12.90;99.90;;;;;;4187430;28;20052;-83
2022/05/07 06:13:43;;;;;;;2.00;1.00;;;12.90;99.90;;;;;;4189854;28;20504;-83
2022/05/07 06:15:51;;;;;;;1.65;1.55;;;12.90;99.90;;;;;;4196797;28;20493;-83
2022/05/07 06:17:54;;;;;;;1.42;1.33;;;12.90;99.90;;;;;;4194886;28;20151;-83
2022/05/07 06:19:56;;;;;;;1.20;1.20;;;13.00;99.90;;;;;;4178502;28;20416;-83
2022/05/07 06:21:59;;;;;;;1.50;1.40;;;13.00;99.90;;;;;;4196509;28;20067;-83
2022/05/07 06:28:43;;;;;;;1.00;1.00;;;13.30;99.90;;;;;;4196259;28;20052;-83
2022/05/07 06:30:45;;;;;;;1.38;1.23;;;13.30;99.90;;;;;;4178901;28;20061;-83
2022/05/07 06:32:48;;;;;;;1.17;1.13;;;13.40;99.90;;;;;;4195814;28;20048;-84
2022/05/07 06:34:50;;;;;;;1.33;1.10;;;13.50;99.90;;;;;;4188984;28;20049;-83
2022/05/07 06:36:54;;;;;;;1.45;1.30;;;13.60;99.90;;;;;;4178637;28;20049;-83
2022/05/07 06:38:57;;;;;;;1.45;1.30;;;13.60;99.90;;;;;;4178253;28;20049;-83
2022/05/07 06:41:04;;;;;;;5.97;1.67;;;13.60;99.90;;;;;;4178699;28;20991;-83
2022/05/07 06:43:06;;;;;;;1.23;1.10;;;13.70;99.90;;;;;;4196531;28;20040;-83
2022/05/07 06:45:08;;;;;;;1.10;1.10;;;13.70;99.90;;;;;;4178292;28;20052;-83
2022/05/07 06:47:10;;;;;;;6.53;1.73;;;13.70;99.90;;;;;;4177958;28;20071;-84
2022/05/07 06:49:14;;;;;;;1.30;1.20;;;13.70;99.90;;;;;;4179717;28;20045;-87
2022/05/07 06:51:16;;;;;;;1.20;1.10;;;13.80;99.90;;;;;;4188903;28;20049;-87
2022/05/07 06:53:19;;;;;;;1.20;1.20;;;13.80;99.90;;;;;;4203340;28;20062;-87
2022/05/07 06:55:21;;;;;;;1.83;1.73;;;13.80;99.90;;;;;;4197214;28;20048;-87
2022/05/07 06:57:24;;;;;;;1.40;1.30;;;13.80;99.90;;;;;;4172785;28;20052;-87
2022/05/07 06:59:28;;;;;;;1.10;1.10;;;13.80;99.90;;;;;;4176685;28;20119;-87
2022/05/07 07:01:32;;;;;;;1.20;1.20;;;13.90;99.90;;;;;;4197416;28;20091;-87
2022/05/07 07:03:36;;;;;;;3.53;1.30;;;14.00;99.90;;;;;;4179034;28;20449;-87
2022/05/07 07:05:38;;;;;;;1.08;1.08;;;14.10;99.90;;;;;;4179081;28;20084;-87
2022/05/07 07:07:41;;;;;;;0.98;0.98;;;14.20;99.90;;;;;;4186985;28;20040;-87
2022/05/07 07:09:44;;;;;;;1.10;1.10;;;14.30;99.90;;;;;;4196661;28;20037;-87
2022/05/07 07:11:47;;;;;;;2.45;1.00;;;14.40;99.90;;;;;;4178616;28;20056;-87
2022/05/07 07:13:49;;;;;;;1.00;1.00;;;14.60;99.90;;;;;;4178907;28;20052;-87
2022/05/07 07:15:52;;;;;;;1.00;1.00;;;14.70;99.90;;;;;;4178758;28;20131;-87
2022/05/07 07:17:54;;;;;;;1.60;1.00;;;14.70;99.90;;;;;;4170206;28;20060;-87
2022/05/07 07:19:57;;;;;;;1.25;1.15;;;14.90;99.90;;;;;;4178824;28;20045;-87
2022/05/07 07:22:00;;;;;;;3.55;1.10;;;15.10;99.90;;;;;;4195117;28;20155;-87
2022/05/07 07:24:02;;;;;;;;;;;15.30;99.90;;;;;;4196693;28;20059;-87
2022/05/07 07:26:05;;;;;;;1.08;1.00;;;15.50;99.90;;;;;;4195086;28;19924;-87
2022/05/07 07:28:09;;;;;;;1.00;1.00;;;15.60;99.90;;;;;;4178844;28;20045;-87
2022/05/07 07:30:12;;;;;;;1.00;1.00;;;15.80;99.90;;;;;;4178921;28;20129;-87
2022/05/07 07:32:15;;;;;;;2.88;1.00;;;15.80;99.90;;;;;;4195053;28;20062;-87
2022/05/07 07:34:18;;;;;;;1.52;0.98;;;15.90;99.90;;;;;;4178621;28;20061;-87
2022/05/07 07:36:20;;;;;;;1.00;1.00;;;16.10;99.90;;;;;;4195028;28;20400;-87
2022/05/07 07:38:22;;;;;;;4.78;1.33;;;16.30;99.90;;;;;;4173895;28;20912;-88
2022/05/07 07:40:24;;;;;;;1.00;1.00;;;16.50;99.90;;;;;;4185679;28;20037;-87
2022/05/07 07:42:27;;;;;;;0.90;0.90;;;16.40;99.90;;;;;;4196115;28;20050;-87
2022/05/07 07:44:29;;;;;;;1.70;1.00;;;16.20;99.90;;;;;;4178524;28;20417;-87
2022/05/07 07:48:52;;;;;;;2.97;1.05;;;17.00;99.90;;;;;;4198832;28;20049;-88
2022/05/07 07:50:55;;;;;;;3.40;0.90;;;17.50;99.90;;;;;;4198913;28;20385;-87
2022/05/07 07:53:00;;;;;;;1.00;0.90;;;17.90;99.90;;;;;;4181800;28;20043;-88
2022/05/07 07:55:02;;;;;;;3.22;1.50;;;18.10;99.90;;;;;;4198147;28;20076;-88
2022/05/07 07:57:04;;;;;;;2.63;0.90;;;18.40;99.90;;;;;;4182023;28;20043;-88
2022/05/07 07:59:06;;;;;;;1.08;0.95;;;18.50;99.90;;;;;;4179969;28;20041;-88
2022/05/07 08:01:10;;;;;;;1.10;1.00;;;18.00;99.90;;;;;;4187072;28;20079;-88
2022/05/07 08:03:15;;;;;;;1.25;1.10;;;17.50;99.90;;;;;;4195806;28;20044;-87
2022/05/07 08:05:24;;;;;;;1.27;1.17;;;17.70;99.90;;;;;;4179223;28;20049;-88
2022/05/07 08:12:09;;;;;;;1.25;1.23;;;17.30;99.90;;;;;;4184973;28;20057;-88
2022/05/07 08:14:13;;;;;;;0.90;0.90;;;17.10;99.90;;;;;;4172112;28;20057;-87
2022/05/07 08:16:19;;;;;;;1.40;1.15;;;16.80;99.90;;;;;;4177925;28;20056;-88
2022/05/07 08:18:22;;;;;;;1.55;0.90;;;17.00;99.90;;;;;;4189420;28;20053;-88
2022/05/07 08:20:25;;;;;;;1.23;0.90;;;17.00;99.90;;;;;;4187622;28;20043;-87
2022/05/07 08:22:28;;;;;;;1.33;1.02;;;16.70;99.90;;;;;;4192377;28;20040;-88
2022/05/07 08:24:31;;;;;;;1.10;0.98;;;16.80;99.90;;;;;;4172656;28;20048;-87
2022/05/07 08:26:34;;;;;;;1.17;1.00;;;17.00;99.90;;;;;;4172411;28;20041;-84
2022/05/07 08:28:37;;;;;;;3.03;0.90;;;17.10;99.90;;;;;;4173757;28;20049;-84
2022/05/07 08:30:39;;;;;;;2.47;1.10;;;17.20;99.90;;;;;;4173149;28;20451;-83
2022/05/07 08:32:41;;;;;;;;;;;17.10;99.90;;;;;;4190732;28;20132;-85
2022/05/07 08:34:43;;;;;;;6.40;1.00;;;17.10;99.90;;;;;;4176851;28;20380;-83
2022/05/07 08:36:45;;;;;;;2.55;1.35;;;17.00;99.90;;;;;;4174851;28;20604;-83
2022/05/07 08:38:47;;;;;;;1.48;1.00;;;16.70;99.90;;;;;;4176075;28;20044;-83
2022/05/07 08:40:50;;;;;;;1.10;1.00;;;16.80;99.90;;;;;;4191667;28;20095;-84
2022/05/07 08:42:57;;;;;;;3.22;1.10;;;17.00;99.90;;;;;;4176005;28;20048;-84
2022/05/07 08:45:00;;;;;;;1.40;1.30;;;17.10;99.90;;;;;;4177588;28;20394;-83
2022/05/07 08:47:02;;;;;;;3.40;1.20;;;17.00;99.90;;;;;;4193703;28;20049;-84
2022/05/07 08:49:05;;;;;;;2.95;0.88;;;17.30;99.90;;;;;;4184746;28;20048;-84
2022/05/07 08:51:07;;;;;;;1.33;1.20;;;17.50;99.90;;;;;;4193485;28;20041;-83
2022/05/07 08:53:09;;;;;;;;;;;17.10;99.90;;;;;;4177361;28;20095;-83
2022/05/07 08:55:15;;;;;;;2.50;1.75;;;17.00;99.90;;;;;;4183822;28;19920;-83
2022/05/07 08:57:17;;;;;;;1.23;0.90;;;16.90;99.90;;;;;;4194519;28;20630;-84
2022/05/07 08:59:21;;;;;;;3.50;1.38;;;16.90;99.90;;;;;;4176674;28;20049;-83
2022/05/07 09:01:25;;;;;;;1.27;1.00;;;17.10;99.90;;;;;;4194490;28;20045;-84
2022/05/07 09:03:45;;;;;;;1.48;1.10;;;17.20;99.90;;;;;;4177204;28;20051;-83
2022/05/07 09:05:48;;;;;;;1.20;0.93;;;17.30;99.90;;;;;;4194590;28;20048;-84
2022/05/07 09:07:57;;;;;;;1.83;1.55;;;17.10;99.90;;;;;;4193538;28;20051;-83
2022/05/07 09:09:59;;;;;;;2.45;1.23;;;17.10;99.90;;;;;;4194516;28;20135;-84
2022/05/07 09:12:02;;;;;;;1.92;1.00;;;17.00;99.90;;;;;;4166687;28;20417;-83
2022/05/07 09:14:05;;;;;;;1.27;1.27;;;16.90;99.90;;;;;;4164588;28;20520;-84
2022/05/07 09:16:09;;;;;;;1.63;0.93;;;16.90;99.90;;;;;;4194607;28;20135;-83
2022/05/07 09:18:16;;;;;;;1.42;1.13;;;16.90;99.90;;;;;;4183944;28;20049;-84
2022/05/07 09:20:19;;;;;;;2.67;1.42;;;16.90;99.90;;;;;;4177714;28;20044;-83
2022/05/07 09:22:22;;;;;;;1.85;1.75;;;16.80;99.90;;;;;;4176580;28;20123;-83
2022/05/07 09:24:26;;;;;;;1.52;1.42;;;16.60;99.90;;;;;;4177413;28;20053;-84
2022/05/07 09:26:30;;;;;;;0.98;0.93;;;16.50;99.90;;;;;;4177805;28;20378;-83
2022/05/07 09:28:34;;;;;;;2.45;1.17;;;16.40;99.90;;;;;;4176472;28;20049;-83
2022/05/07 09:30:36;;;;;;;2.78;1.17;;;16.40;99.90;;;;;;4177646;28;20053;-83
2022/05/07 09:32:38;;;;;;;1.55;1.40;;;16.50;99.90;;;;;;4176444;28;20045;-83
2022/05/07 09:37:16;;;;;;;1.80;1.70;;;16.30;99.90;;;;;;4194034;28;20059;-84
2022/05/07 09:39:19;;;;;;;4.00;1.40;;;16.40;99.90;;;;;;4176389;28;20051;-83
2022/05/07 09:41:21;;;;;;;2.75;2.10;;;16.40;99.90;;;;;;4176761;28;20049;-84
2022/05/07 09:43:23;;;;;;;1.60;1.10;;;16.30;99.90;;;;;;4168872;28;20570;-83
2022/05/07 09:45:29;;;;;;;3.47;2.17;;;16.30;99.90;;;;;;4176191;28;20052;-84
2022/05/07 09:47:37;;;;;;;1.40;1.00;;;16.50;99.90;;;;;;4183408;28;20059;-83
2022/05/07 09:50:20;;;;;;;1.20;1.10;;;16.50;99.90;;;;;;4173235;28;20522;-84
2022/05/07 09:52:04;;;;;;;2.35;2.15;;;16.80;99.90;;;;;;4193618;28;20057;-84
2022/05/07 09:58:50;;;;;;;2.25;1.00;;;16.50;99.90;;;;;;4188127;28;20058;-85
2022/05/07 10:01:25;;;;;;;5.07;2.17;;;16.70;99.90;;;;;;4187340;28;20049;-83
2022/05/07 10:03:46;;;;;;;1.80;1.10;;;17.00;99.90;;;;;;4196560;28;20447;-84
2022/05/07 10:06:18;;;;;;;1.67;1.10;;;17.50;99.90;;;;;;4172806;28;20072;-83
2022/05/07 10:08:44;;;;;;;4.88;2.13;;;17.40;99.90;;;;;;4193122;28;20045;-84
2022/05/07 10:10:50;;;;;;;1.73;1.00;;;18.10;99.90;;;;;;4177976;28;20079;-84
2022/05/07 10:13:00;;;;;;;2.42;0.90;;;18.30;99.90;;;;;;4167756;28;20309;-84
2022/05/07 10:15:07;;;;;;;3.78;1.00;;;18.20;99.90;;;;;;4187625;28;20060;-84
2022/05/07 10:17:11;;;;;;;0.90;0.90;;;18.30;99.90;;;;;;4186791;28;20520;-85
2022/05/07 10:19:14;;;;;;;2.47;1.30;;;18.80;99.90;;;;;;4189047;28;20048;-82
2022/05/07 10:21:18;;;;;;;0.95;0.85;;;19.10;99.90;;;;;;4188032;28;20051;-83
2022/05/07 10:23:32;;;;;;;1.33;0.90;;;18.50;99.90;;;;;;4190909;28;20068;-83
2022/05/07 10:25:35;;;;;;;0.80;0.80;;;18.40;99.90;;;;;;4187024;28;20419;-82
2022/05/07 10:27:41;;;;;;;2.72;1.30;;;18.30;99.90;;;;;;4189627;28;20051;-83
2022/05/07 10:29:46;;;;;;;1.05;0.80;;;18.40;99.90;;;;;;4164937;28;20047;-83
2022/05/07 10:31:50;;;;;;;1.33;1.00;;;18.50;99.90;;;;;;4160965;28;20041;-83
2022/05/07 10:33:53;;;;;;;1.08;0.85;;;18.50;99.90;;;;;;4186180;28;20060;-82
2022/05/07 10:35:57;;;;;;;0.90;0.90;;;18.20;99.90;;;;;;4190886;28;21005;-83
2022/05/07 10:38:10;;;;;;;1.52;0.90;;;18.10;99.90;;;;;;4163836;28;20453;-84
2022/05/07 10:40:13;;;;;;;1.27;0.90;;;17.60;99.90;;;;;;4178836;28;20063;-84
2022/05/07 10:42:16;;;;;;;1.58;0.90;;;17.80;99.90;;;;;;4167552;28;20127;-84
2022/05/07 10:44:34;;;;;;;2.22;0.98;;;17.50;99.90;;;;;;4182227;28;20049;-84
2022/05/07 10:46:44;;;;;;;1.70;1.13;;;17.70;99.90;;;;;;4191376;28;20044;-84
2022/05/07 10:48:48;;;;;;;1.80;0.90;;;17.70;99.90;;;;;;4193389;28;20048;-85
2022/05/07 10:50:55;;;;;;;0.90;0.90;;;17.80;99.90;;;;;;4193587;28;20044;-85
2022/05/07 10:52:57;;;;;;;2.40;1.08;;;17.70;99.90;;;;;;4172330;28;20499;-85
2022/05/07 10:55:10;;;;;;;1.75;1.00;;;17.50;99.90;;;;;;4178640;28;20219;-85
2022/05/07 10:57:12;;;;;;;1.23;0.90;;;17.30;99.90;;;;;;4177798;28;20543;-85
2022/05/07 10:59:14;;;;;;;2.55;1.45;;;17.10;99.90;;;;;;4194416;28;20052;-85
2022/05/07 11:01:19;;;;;;;1.30;1.20;;;17.00;99.90;;;;;;4194608;28;20043;-85
2022/05/07 11:03:26;;;;;;;1.70;1.00;;;16.90;99.90;;;;;;4186424;28;20044;-85
2022/05/07 11:05:35;;;;;;;2.92;1.35;;;17.00;99.90;;;;;;4176831;28;20520;-84
2022/05/07 11:07:39;;;;;;;1.23;1.23;;;16.90;99.90;;;;;;4190136;28;20079;-85
2022/05/07 11:09:49;;;;;;;4.30;1.27;;;16.90;99.90;;;;;;4177768;28;20044;-85
2022/05/07 11:11:56;;;;;;;1.70;1.45;;;17.00;99.90;;;;;;4190320;28;20045;-85
2022/05/07 11:14:00;;;;;;;3.33;1.00;;;17.00;99.90;;;;;;4193531;28;20044;-85